createdAt,value
2023-03-26T00:01:26.746Z,98544.09
2023-03-26T00:03:58.631Z,98562.28
2023-03-26T00:06:29.042Z,98547.09
2023-03-26T00:08:57.679Z,98550.50
2023-03-26T00:11:27.932Z,98548.63
2023-03-26T00:13:58.921Z,98558.78
2023-03-26T00:16:31.527Z,98559.41
2023-03-26T00:19:00.157Z,98555.03
2023-03-26T00:21:29.276Z,98563.41
2023-03-26T00:24:04.666Z,98554.66
2023-03-26T00:26:34.138Z,98557.09
2023-03-26T00:29:03.503Z,98557.09
2023-03-26T00:31:31.324Z,98550.19
2023-03-26T00:33:58.586Z,98556.06
2023-03-26T00:36:27.023Z,98552.97
2023-03-26T00:38:54.969Z,98544.22
2023-03-26T00:41:26.438Z,98549.75
2023-03-26T00:43:58.730Z,98535.25
2023-03-26T00:46:27.287Z,98541.00
2023-03-26T00:48:54.353Z,98545.81
2023-03-26T00:51:22.114Z,98549.03
2023-03-26T00:53:50.783Z,98548.94
2023-03-26T00:56:19.187Z,98544.22
2023-03-26T00:58:48.029Z,98546.63
2023-03-26T01:01:18.992Z,98545.72
2023-03-26T01:04:00.917Z,98535.72
2023-03-26T01:06:36.500Z,98542.72
2023-03-26T01:09:19.071Z,98536.28
2023-03-26T01:11:48.305Z,98529.34
2023-03-26T01:14:18.895Z,98538.69
2023-03-26T01:16:55.188Z,98532.25
2023-03-26T01:19:29.809Z,98541.22
2023-03-26T01:21:59.038Z,98552.63
2023-03-26T01:24:26.251Z,98542.41
2023-03-26T01:26:58.858Z,98519.75
2023-03-26T01:29:34.557Z,98556.88
2023-03-26T01:32:20.743Z,98547.13
2023-03-26T01:35:21.560Z,98564.19
2023-03-26T01:38:11.155Z,98565.00
2023-03-26T01:40:50.608Z,98570.09
2023-03-26T01:43:39.652Z,98563.66
2023-03-26T01:46:09.484Z,98576.53
2023-03-26T01:48:44.158Z,98583.88
2023-03-26T01:51:13.001Z,98578.84
2023-03-26T01:53:46.344Z,98579.53
2023-03-26T01:56:36.567Z,98577.72
2023-03-26T01:59:18.533Z,98574.03
2023-03-26T02:02:11.379Z,98568.41
2023-03-26T02:05:00.377Z,98567.16
2023-03-26T02:07:42.074Z,98574.50
2023-03-26T02:10:16.467Z,98571.50
2023-03-26T02:12:45.517Z,98565.31
2023-03-26T02:15:13.042Z,98583.34
2023-03-26T02:17:40.564Z,98577.72
2023-03-26T02:20:14.101Z,98582.22
2023-03-26T02:22:46.090Z,98588.41
2023-03-26T02:25:19.033Z,98588.75
2023-03-26T02:27:50.408Z,98591.28
2023-03-26T02:30:25.782Z,98580.03
2023-03-26T02:32:59.328Z,98586.22
2023-03-26T02:35:32.935Z,98593.81
2023-03-26T02:38:02.130Z,98599.31
2023-03-26T02:40:29.011Z,98611.38
2023-03-26T02:42:56.560Z,98595.41
2023-03-26T02:45:24.412Z,98608.97
2023-03-26T02:48:18.152Z,98607.59
2023-03-26T02:51:02.968Z,98612.63
2023-03-26T02:53:32.550Z,98623.00
2023-03-26T02:56:18.664Z,98623.22
2023-03-26T02:58:59.346Z,98620.75
2023-03-26T03:01:26.616Z,98625.50
2023-03-26T03:03:55.042Z,98631.00
2023-03-26T03:06:34.724Z,98628.31
2023-03-26T03:09:02.881Z,98634.88
2023-03-26T03:11:36.548Z,98633.41
2023-03-26T03:14:05.004Z,98640.75
2023-03-26T03:16:33.500Z,98640.41
2023-03-26T03:19:06.376Z,98645.13
2023-03-26T03:21:37.994Z,98640.16
2023-03-26T03:24:05.979Z,98645.44
2023-03-26T03:26:36.511Z,98646.16
2023-03-26T03:29:32.158Z,98635.91
2023-03-26T03:32:12.671Z,98659.38
2023-03-26T03:34:45.117Z,98639.72
2023-03-26T03:37:12.194Z,98632.47
2023-03-26T03:39:45.412Z,98634.22
2023-03-26T03:42:16.929Z,98631.44
2023-03-26T03:44:44.768Z,98626.84
2023-03-26T03:47:31.641Z,98634.75
2023-03-26T03:50:00.325Z,98611.78
2023-03-26T03:52:28.244Z,98632.94
2023-03-26T03:54:57.875Z,98632.34
2023-03-26T03:57:39.291Z,98624.19
2023-03-26T04:00:12.057Z,98634.41
2023-03-26T04:02:56.368Z,98632.22
2023-03-26T04:05:26.609Z,98627.63
2023-03-26T04:07:53.808Z,98630.75
2023-03-26T04:10:38.791Z,98626.84
2023-03-26T04:13:12.862Z,98641.63
2023-03-26T04:15:56.182Z,98638.44
2023-03-26T04:18:23.811Z,98625.00
2023-03-26T04:20:51.040Z,98637.28
2023-03-26T04:23:26.748Z,98629.31
2023-03-26T04:26:05.575Z,98638.19
2023-03-26T04:29:12.860Z,98637.19
2023-03-26T04:31:40.110Z,98627.56
2023-03-26T04:34:23.550Z,98638.72
2023-03-26T04:37:06.718Z,98634.91
2023-03-26T04:39:42.273Z,98620.06
2023-03-26T04:42:47.154Z,98640.28
2023-03-26T04:45:31.996Z,98634.28
2023-03-26T04:47:59.456Z,98653.84
2023-03-26T04:50:27.192Z,98653.25
2023-03-26T04:52:59.650Z,98666.00
2023-03-26T04:56:11.912Z,98660.44
2023-03-26T04:59:15.776Z,98652.13
2023-03-26T05:01:46.160Z,98649.56
2023-03-26T05:04:15.577Z,98651.09
2023-03-26T05:06:43.164Z,98662.00
2023-03-26T05:09:23.404Z,98646.47
2023-03-26T05:12:23.041Z,98653.88
2023-03-26T05:15:12.073Z,98642.78
2023-03-26T05:18:01.847Z,98657.84
2023-03-26T05:20:37.265Z,98664.00
2023-03-26T05:23:08.104Z,98658.78
2023-03-26T05:25:37.748Z,98666.16
2023-03-26T05:28:11.904Z,98664.75
2023-03-26T05:30:48.072Z,98669.13
2023-03-26T05:33:16.533Z,98665.75
2023-03-26T05:36:01.335Z,98684.38
2023-03-26T05:38:31.224Z,98691.56
2023-03-26T05:41:00.235Z,98684.97
2023-03-26T05:43:27.978Z,98679.59
2023-03-26T05:46:17.320Z,98673.00
2023-03-26T05:48:51.590Z,98689.59
2023-03-26T05:51:20.661Z,98690.00
2023-03-26T05:53:57.003Z,98689.41
2023-03-26T05:56:42.809Z,98694.09
2023-03-26T05:59:28.320Z,98705.94
2023-03-26T06:01:58.396Z,98686.19
2023-03-26T06:04:46.250Z,98712.38
2023-03-26T06:07:34.001Z,98712.78
2023-03-26T06:10:10.130Z,98713.81
2023-03-26T06:12:37.438Z,98715.16
2023-03-26T06:15:05.794Z,98722.50
2023-03-26T06:17:58.669Z,98721.81
2023-03-26T06:20:52.399Z,98718.19
2023-03-26T06:23:31.269Z,98728.69
2023-03-26T06:26:17.222Z,98721.84
2023-03-26T06:28:55.307Z,98710.50
2023-03-26T06:31:34.897Z,98722.22
2023-03-26T06:34:24.085Z,98730.16
2023-03-26T06:36:53.001Z,98738.22
2023-03-26T06:39:21.659Z,98728.34
2023-03-26T06:42:06.720Z,98739.84
2023-03-26T06:44:59.814Z,98747.41
2023-03-26T06:47:50.552Z,98745.59
2023-03-26T06:50:47.345Z,98754.78
2023-03-26T06:53:43.234Z,98758.72
2023-03-26T06:56:25.140Z,98754.09
2023-03-26T06:59:02.453Z,98744.47
2023-03-26T07:01:48.817Z,98749.53
2023-03-26T07:04:34.840Z,98747.03
2023-03-26T07:07:21.991Z,98742.75
2023-03-26T07:10:08.122Z,98740.88
2023-03-26T07:12:54.072Z,98734.09
2023-03-26T07:15:36.358Z,98740.91
2023-03-26T07:18:26.548Z,98744.69
2023-03-26T07:20:54.271Z,98736.88
2023-03-26T07:23:23.186Z,98745.84
2023-03-26T07:25:57.739Z,98752.53
2023-03-26T07:28:41.469Z,98748.97
2023-03-26T07:31:38.231Z,98739.41
2023-03-26T07:35:03.004Z,98745.16
2023-03-26T07:38:23.780Z,98756.47
2023-03-26T07:41:20.264Z,98748.13
2023-03-26T07:44:43.361Z,98746.25
2023-03-26T07:47:36.788Z,98739.09
2023-03-26T07:50:27.301Z,98757.13
2023-03-26T07:53:15.078Z,98751.88
2023-03-26T07:56:06.336Z,98746.91
2023-03-26T07:59:04.365Z,98734.06
2023-03-26T08:02:00.599Z,98739.84
2023-03-26T08:04:54.278Z,98742.84
2023-03-26T08:07:59.014Z,98737.81
2023-03-26T08:10:38.631Z,98723.78
2023-03-26T08:13:27.894Z,98738.09
2023-03-26T08:16:17.129Z,98722.19
2023-03-26T08:18:47.480Z,98744.84
2023-03-26T08:21:20.739Z,98717.03
2023-03-26T08:24:18.853Z,98730.84
2023-03-26T08:26:57.824Z,98727.66
2023-03-26T08:29:50.145Z,98727.63
2023-03-26T08:32:19.292Z,98716.91
2023-03-26T08:34:46.546Z,98722.22
2023-03-26T08:37:13.961Z,98735.56
2023-03-26T08:39:42.603Z,98732.03
2023-03-26T08:42:18.387Z,98716.94
2023-03-26T08:45:53.442Z,98726.31
2023-03-26T08:48:20.284Z,98733.28
2023-03-26T08:51:13.107Z,98731.06
2023-03-26T08:54:08.429Z,98738.47
2023-03-26T08:57:01.653Z,98747.66
2023-03-26T08:59:34.589Z,98751.59
2023-03-26T09:02:49.173Z,98765.81
2023-03-26T09:05:43.522Z,98758.41
2023-03-26T09:08:54.292Z,98767.75
2023-03-26T09:11:44.932Z,98744.38
2023-03-26T09:14:36.985Z,98746.44
2023-03-26T09:17:35.043Z,98755.50
2023-03-26T09:20:09.065Z,98755.50
2023-03-26T09:22:53.286Z,98746.22
2023-03-26T09:25:53.530Z,98741.22
2023-03-26T09:28:36.774Z,98753.78
2023-03-26T09:31:28.513Z,98745.31
2023-03-26T09:34:00.584Z,98761.59
2023-03-26T09:36:53.129Z,98740.28
2023-03-26T09:39:43.004Z,98742.13
2023-03-26T09:42:23.383Z,98741.31
2023-03-26T09:45:09.227Z,98739.06
2023-03-26T09:47:53.853Z,98731.69
2023-03-26T09:50:42.608Z,98735.56
2023-03-26T09:53:38.638Z,98739.28
2023-03-26T09:56:42.480Z,98735.28
2023-03-26T09:59:24.760Z,98730.72
2023-03-26T10:01:54.801Z,98744.34
2023-03-26T10:04:40.561Z,98735.84
2023-03-26T10:07:39.146Z,98730.38
2023-03-26T10:10:23.995Z,98724.00
2023-03-26T10:13:02.149Z,98732.50
2023-03-26T10:15:44.836Z,98718.75
2023-03-26T10:18:27.354Z,98724.91
2023-03-26T10:21:02.858Z,98725.00
2023-03-26T10:23:53.833Z,98714.19
2023-03-26T10:27:08.957Z,98716.72
2023-03-26T10:29:41.586Z,98714.00
2023-03-26T10:32:51.406Z,98712.03
2023-03-26T10:35:45.282Z,98702.19
2023-03-26T10:38:36.736Z,98697.06
2023-03-26T10:41:09.150Z,98700.13
2023-03-26T10:44:19.782Z,98683.97
2023-03-26T10:47:02.024Z,98694.50
2023-03-26T10:49:51.088Z,98696.63
2023-03-26T10:52:49.324Z,98689.41
2023-03-26T10:55:28.769Z,98684.88
2023-03-26T10:58:03.732Z,98685.44
2023-03-26T11:00:31.370Z,98679.34
2023-03-26T11:03:24.420Z,98690.03
2023-03-26T11:06:15.517Z,98689.00
2023-03-26T11:08:52.322Z,98695.13
2023-03-26T11:11:29.768Z,98682.09
2023-03-26T11:14:06.618Z,98683.03
2023-03-26T11:16:53.360Z,98677.00
2023-03-26T11:19:29.326Z,98673.31
2023-03-26T11:22:16.173Z,98675.06
2023-03-26T11:25:09.536Z,98599.16
2023-03-26T11:27:55.029Z,98667.19
2023-03-26T11:30:34.217Z,98644.59
2023-03-26T11:33:06.006Z,98656.06
2023-03-26T11:35:40.382Z,98648.59
2023-03-26T11:38:46.849Z,98654.06
2023-03-26T11:41:23.694Z,98634.94
2023-03-26T11:44:21.924Z,98634.13
2023-03-26T11:46:59.879Z,98654.44
2023-03-26T11:49:29.532Z,98641.59
2023-03-26T11:51:56.778Z,98643.16
2023-03-26T11:54:23.845Z,98632.28
2023-03-26T11:57:13.310Z,98625.59
2023-03-26T11:59:57.160Z,98621.41
2023-03-26T12:03:00.509Z,98623.66
2023-03-26T12:05:36.669Z,98605.22
2023-03-26T12:08:18.083Z,98618.66
2023-03-26T12:10:58.645Z,98602.34
2023-03-26T12:13:30.477Z,98597.19
2023-03-26T12:16:01.412Z,98604.84
2023-03-26T12:18:28.853Z,98602.69
2023-03-26T12:21:04.540Z,98589.66
2023-03-26T12:23:39.067Z,98596.63
2023-03-26T12:26:20.804Z,98581.28
2023-03-26T12:28:50.563Z,98603.16
2023-03-26T12:31:19.502Z,98596.63
2023-03-26T12:34:06.558Z,98594.72
2023-03-26T12:36:49.779Z,98594.63
2023-03-26T12:40:07.284Z,98591.41
2023-03-26T12:44:47.105Z,98587.84
2023-03-26T12:45:27.021Z,98591.72
2023-03-26T12:48:02.989Z,98586.75
2023-03-26T12:51:14.198Z,98579.16
2023-03-26T12:53:53.400Z,98584.06
2023-03-26T12:56:39.500Z,98594.50
2023-03-26T12:59:37.144Z,98584.56
2023-03-26T13:02:16.239Z,98568.53
2023-03-26T13:05:20.024Z,98573.84
2023-03-26T13:08:21.272Z,98578.06
2023-03-26T13:11:09.061Z,98577.31
2023-03-26T13:13:45.705Z,98570.56
2023-03-26T13:16:37.614Z,98565.81
2023-03-26T13:19:16.079Z,98579.28
2023-03-26T13:21:46.956Z,98577.28
2023-03-26T13:24:19.782Z,98570.97
2023-03-26T13:27:12.979Z,98563.13
2023-03-26T13:29:56.819Z,98573.44
2023-03-26T13:32:47.066Z,98570.41
2023-03-26T13:35:20.359Z,98571.63
2023-03-26T13:38:06.176Z,98565.47
2023-03-26T13:40:45.088Z,98564.31
2023-03-26T13:43:18.137Z,98559.03
2023-03-26T13:45:58.361Z,98568.63
2023-03-26T13:48:56.496Z,98564.38
2023-03-26T13:51:40.771Z,98571.97
2023-03-26T13:54:26.778Z,98575.13
2023-03-26T13:57:11.453Z,98568.28
2023-03-26T13:59:50.447Z,98543.63
2023-03-26T14:02:24.746Z,98573.59
2023-03-26T14:04:58.817Z,98564.50
2023-03-26T14:07:41.500Z,98488.09
2023-03-26T14:10:24.012Z,98564.53
2023-03-26T14:13:00.864Z,98569.97
2023-03-26T14:15:56.061Z,98570.59
2023-03-26T14:18:39.291Z,98556.50
2023-03-26T14:21:24.911Z,98570.00
2023-03-26T14:23:54.932Z,98572.97
2023-03-26T14:26:43.853Z,98564.63
2023-03-26T14:29:57.182Z,98569.94
2023-03-26T14:33:05.961Z,98574.13
2023-03-26T14:35:58.729Z,98559.41
2023-03-26T14:38:47.422Z,98567.00
2023-03-26T14:41:23.695Z,98560.44
2023-03-26T14:44:12.011Z,98570.91
2023-03-26T14:46:47.725Z,98557.75
2023-03-26T14:49:20.261Z,98564.50
2023-03-26T14:52:09.575Z,98559.03
2023-03-26T14:54:42.593Z,98552.28
2023-03-26T14:57:47.131Z,98553.09
2023-03-26T15:00:40.836Z,98560.94
2023-03-26T15:03:27.863Z,98558.22
2023-03-26T15:06:03.746Z,98556.63
2023-03-26T15:08:55.800Z,98553.47
2023-03-26T15:11:22.970Z,98560.94
2023-03-26T15:14:03.048Z,98563.69
2023-03-26T15:16:56.236Z,98552.94
2023-03-26T15:19:44.445Z,98555.56
2023-03-26T15:22:30.530Z,98560.75
2023-03-26T15:25:35.293Z,98558.59
2023-03-26T15:28:17.741Z,98568.38
2023-03-26T15:31:11.506Z,98562.47
2023-03-26T15:34:06.442Z,98557.88
2023-03-26T15:37:10.920Z,98557.22
2023-03-26T15:39:59.188Z,98556.22
2023-03-26T15:42:59.217Z,98556.84
2023-03-26T15:45:38.531Z,98565.63
2023-03-26T15:48:12.063Z,98549.59
2023-03-26T15:50:54.829Z,98559.88
2023-03-26T15:53:52.979Z,98560.16
2023-03-26T15:56:31.246Z,98553.06
2023-03-26T15:59:15.977Z,98565.34
2023-03-26T16:02:04.919Z,98563.19
2023-03-26T16:05:06.136Z,98563.91
2023-03-26T16:08:03.005Z,98574.00
2023-03-26T16:11:08.274Z,98563.16
2023-03-26T16:13:42.845Z,98567.28
2023-03-26T16:16:15.581Z,98580.16
2023-03-26T16:18:56.696Z,98563.81
2023-03-26T16:21:36.886Z,98578.84
2023-03-26T16:24:03.740Z,98574.31
2023-03-26T16:26:52.458Z,98581.97
2023-03-26T16:29:22.428Z,98585.88
2023-03-26T16:32:07.751Z,98589.56
2023-03-26T16:35:03.561Z,98591.72
2023-03-26T16:37:36.574Z,98589.88
2023-03-26T16:40:22.640Z,98598.41
2023-03-26T16:43:14.533Z,98594.75
2023-03-26T16:46:05.855Z,98599.50
2023-03-26T16:48:37.801Z,98601.19
2023-03-26T16:51:38.660Z,98612.84
2023-03-26T16:54:16.712Z,98616.03
2023-03-26T16:56:53.871Z,98584.72
2023-03-26T16:59:46.382Z,98610.63
2023-03-26T17:03:00.145Z,98615.72
2023-03-26T17:05:37.686Z,98625.00
2023-03-26T17:08:36.556Z,98635.50
2023-03-26T17:11:09.276Z,98630.66
2023-03-26T17:14:03.839Z,98635.16
2023-03-26T17:17:02.741Z,98644.03
2023-03-26T17:19:48.121Z,98649.19
2023-03-26T17:22:21.540Z,98647.25
2023-03-26T17:25:04.937Z,98657.59
2023-03-26T17:27:50.212Z,98659.34
2023-03-26T17:30:47.430Z,98666.81
2023-03-26T17:33:27.953Z,98660.72
2023-03-26T17:36:13.466Z,98664.84
2023-03-26T17:38:40.529Z,98669.22
2023-03-26T17:41:15.437Z,98662.31
2023-03-26T17:43:51.944Z,98666.84
2023-03-26T17:46:37.616Z,98675.47
2023-03-26T17:49:29.101Z,98669.69
2023-03-26T17:52:18.196Z,98667.03
2023-03-26T17:54:51.996Z,98665.19
2023-03-26T17:57:33.883Z,98670.59
2023-03-26T18:00:02.673Z,98670.81
2023-03-26T18:02:47.724Z,98676.97
2023-03-26T18:05:17.571Z,98676.28
2023-03-26T18:07:59.513Z,98680.06
2023-03-26T18:10:47.803Z,98677.84
2023-03-26T18:13:24.033Z,98679.00
2023-03-26T18:15:50.869Z,98681.63
2023-03-26T18:18:20.016Z,98669.09
2023-03-26T18:20:49.793Z,98668.84
2023-03-26T18:23:39.405Z,98676.09
2023-03-26T18:26:14.104Z,98669.78
2023-03-26T18:28:45.157Z,98674.00
2023-03-26T18:31:24.157Z,98675.09
2023-03-26T18:33:57.104Z,98664.94
2023-03-26T18:36:27.938Z,98675.63
2023-03-26T18:39:04.242Z,98678.13
2023-03-26T18:41:42.048Z,98667.16
2023-03-26T18:44:18.306Z,98668.03
2023-03-26T18:46:45.893Z,98674.91
2023-03-26T18:49:15.525Z,98678.31
2023-03-26T18:51:56.065Z,98670.25
2023-03-26T18:54:23.794Z,98677.50
2023-03-26T18:56:52.378Z,98671.13
2023-03-26T18:59:27.973Z,98687.09
2023-03-26T19:01:57.992Z,98684.34
2023-03-26T19:04:26.905Z,98678.31
2023-03-26T19:06:56.210Z,98674.47
2023-03-26T19:09:31.712Z,98680.03
2023-03-26T19:12:28.218Z,98665.72
2023-03-26T19:15:08.135Z,98671.81
2023-03-26T19:17:45.759Z,98663.81
2023-03-26T19:20:18.858Z,98668.47
2023-03-26T19:22:48.337Z,98658.78
2023-03-26T19:25:28.203Z,98658.31
2023-03-26T19:27:56.258Z,98659.25
2023-03-26T19:30:33.122Z,98659.44
2023-03-26T19:33:12.681Z,98646.19
2023-03-26T19:35:42.312Z,98665.84
2023-03-26T19:38:22.654Z,98662.94
2023-03-26T19:40:52.452Z,98672.81
2023-03-26T19:43:19.693Z,98664.44
2023-03-26T19:45:59.338Z,98662.75
2023-03-26T19:48:45.646Z,98640.84
2023-03-26T19:51:31.575Z,98663.63
2023-03-26T19:54:01.073Z,98655.69
2023-03-26T19:56:28.852Z,98650.72
2023-03-26T19:58:56.948Z,98647.00
2023-03-26T20:01:26.936Z,98652.66
2023-03-26T20:04:01.244Z,98642.84
2023-03-26T20:06:43.380Z,98640.09
2023-03-26T20:09:17.272Z,98639.47
2023-03-26T20:11:44.170Z,98621.19
2023-03-26T20:14:26.248Z,98630.06
2023-03-26T20:16:53.857Z,98633.06
2023-03-26T20:19:20.953Z,98621.31
2023-03-26T20:21:48.005Z,98621.16
2023-03-26T20:24:17.247Z,98622.63
2023-03-26T20:26:45.814Z,98613.09
2023-03-26T20:29:14.087Z,98600.50
2023-03-26T20:31:42.068Z,98609.56
2023-03-26T20:34:21.928Z,98600.88
2023-03-26T20:36:55.331Z,98590.91
2023-03-26T20:39:23.641Z,98587.06
2023-03-26T20:41:51.487Z,98594.19
2023-03-26T20:44:21.074Z,98579.84
2023-03-26T20:46:49.871Z,98600.34
2023-03-26T20:49:18.195Z,98589.03
2023-03-26T20:51:47.018Z,98587.91
2023-03-26T20:54:17.791Z,98597.94
2023-03-26T20:56:45.725Z,98589.38
2023-03-26T20:59:17.811Z,98589.53
2023-03-26T21:01:47.523Z,98578.06
2023-03-26T21:04:16.122Z,98588.88
2023-03-26T21:06:43.836Z,98580.50
2023-03-26T21:09:17.831Z,98592.13
2023-03-26T21:12:01.961Z,98588.59
2023-03-26T21:14:44.000Z,98578.41
2023-03-26T21:17:18.187Z,98576.94
2023-03-26T21:19:46.152Z,98570.66
2023-03-26T21:22:31.649Z,98573.53
2023-03-26T21:25:05.958Z,98573.69
2023-03-26T21:27:39.493Z,98572.72
2023-03-26T21:30:13.963Z,98568.69
2023-03-26T21:32:42.720Z,98558.66
2023-03-26T21:35:10.605Z,98569.16
2023-03-26T21:38:06.635Z,98567.38
2023-03-26T21:40:34.341Z,98562.19
2023-03-26T21:43:01.981Z,98566.72
2023-03-26T21:45:29.278Z,98540.13
2023-03-26T21:47:56.869Z,98548.50
2023-03-26T21:50:24.423Z,98548.75
2023-03-26T21:52:51.890Z,98550.38
2023-03-26T21:55:24.401Z,98510.03
2023-03-26T21:58:22.144Z,98545.53
2023-03-26T22:01:11.517Z,98534.72
2023-03-26T22:04:20.341Z,98545.84
2023-03-26T22:06:55.849Z,98547.75
2023-03-26T22:09:33.900Z,98535.47
2023-03-26T22:12:04.018Z,98545.25
2023-03-26T22:14:30.946Z,98540.59
2023-03-26T22:16:57.755Z,98541.88
2023-03-26T22:19:24.960Z,98531.25
2023-03-26T22:21:51.845Z,98534.28
2023-03-26T22:24:18.753Z,98537.28
2023-03-26T22:26:46.187Z,98516.91
2023-03-26T22:29:15.008Z,98528.47
2023-03-26T22:31:42.815Z,98525.22
2023-03-26T22:34:10.021Z,98520.19
2023-03-26T22:36:39.791Z,98518.03
2023-03-26T22:39:07.446Z,98521.41
2023-03-26T22:41:34.567Z,98525.88
2023-03-26T22:44:12.875Z,98516.19
2023-03-26T22:46:49.390Z,98502.75
2023-03-26T22:49:16.981Z,98516.22
2023-03-26T22:51:44.187Z,98502.06
2023-03-26T22:54:11.355Z,98500.25
2023-03-26T22:56:38.619Z,98503.44
2023-03-26T22:59:05.459Z,98490.66
2023-03-26T23:01:32.638Z,98497.03
2023-03-26T23:03:59.549Z,98507.66
2023-03-26T23:06:26.704Z,98477.53
2023-03-26T23:08:54.424Z,98492.25
2023-03-26T23:11:23.302Z,98482.25
2023-03-26T23:13:51.324Z,98484.38
2023-03-26T23:16:19.390Z,98495.31
2023-03-26T23:18:46.651Z,98487.91
2023-03-26T23:21:19.498Z,98489.38
2023-03-26T23:23:48.066Z,98492.25
2023-03-26T23:26:15.312Z,98488.47
2023-03-26T23:28:43.365Z,98488.34
2023-03-26T23:31:12.406Z,98493.34
2023-03-26T23:33:46.205Z,98489.34
2023-03-26T23:36:17.877Z,98479.25
2023-03-26T23:38:49.610Z,98475.00
2023-03-26T23:41:19.851Z,98477.44
2023-03-26T23:43:54.304Z,98471.81
2023-03-26T23:46:31.057Z,98458.44
2023-03-26T23:49:00.104Z,98464.13
2023-03-26T23:51:27.628Z,98468.97
2023-03-26T23:53:54.742Z,98468.75
2023-03-26T23:56:21.726Z,98469.16
2023-03-26T23:58:49.102Z,98439.47
